Detall de PIREP

Printer-friendly versionPDF version

[2013/04/06 07:14:00]
Flight IATA:CT3124
Pilot Number:012
Company ICAO:CAT
Aircraft Type:MD11/E
PAX:208
Aircraft Registration:PAX
Departing Airport: LFMP
Destination Airport: LEVC
Alternate Airport:LEPA
Online: VATSIM
Route:BEXUR G7 BCN B28 SOPET
Flight Level:F230
No Slew and time accel
No pause
Crash detect
Detect pilot in Cockpit between each 30 and 45 minutes
07:14 Zero fuel Weight: 369057 Lbs, Fuel Weight: 37872 Lbs
07:14 VATSIM:LFMP 060700Z 32018KT 9999 FEW026 BKN060 07/M00 Q1010 BECMG 31020G35KT
07:14 VATSIM:LEVC 060700Z VRB02KT CAVOK 09/01 Q1013 NOSIG
07:14 VOICE CATALONIAN
07:15 Parking Brakes off
07:19 Take-off
07:19 Take off Weight: 406037 Lbs
07:19 Wind: 322º @ 018 Knots Heading: 327º
07:19 POS N42º 44´ 42´´ E002º 52´ 09´´
07:19 Flaps:3 at 181 Knots
07:19 Flaps:2 at 184 Knots
07:19 Gear Up: 186 Knots
07:19 Flaps:3 at 189 Knots
07:20 Flaps:2 at 207 Knots
07:20 Flaps:3 at 207 Knots
07:20 Flaps:2 at 207 Knots
07:20 Flaps:1 at 207 Knots
07:20 Flaps:0 at 220 Knots
07:25 TOC
07:25 Fuel Weight: 32047 Lb
07:34 Wind:189º@040 Knots Heading: 228º Ground Speed: 407 Knots Altitude 22877 ft
07:49 Wind:336º@029 Knots Heading: 231º Ground Speed: 434 Knots Altitude 22906 ft
07:55 TOD
07:55 Fuel Weight: 24324 Lb
08:02 Flaps:1 at 239 Knots
08:04 Wind:343º@028 Knots Heading: 286º Ground Speed: 266 Knots Altitude 11968 ft
08:04 Flaps:2 at 241 Knots
08:04 Flaps:3 at 241 Knots
08:09 Flaps:4 at 169 Knots
08:09 Flaps:3 at 169 Knots
08:09 Flaps:4 at 169 Knots
08:09 Flaps:5 at 169 Knots
08:09 Flaps:6 at 169 Knots
08:10 Gear Down: 169 Knots
08:10 Flaps:7 at 170 Knots
08:11 Flaps:8 at 166 Knots
08:15 TouchDown:Rate -199 ft/min Speed: 136 Knots
08:15 VATSIM:LEVC 060800Z 30014KT 9999 FEW035 11/M01 Q1013 NOSIG
08:15 Land
08:15Wind:003º@002 Knots
08:15 Heading: 116º
08:15 Flight Duration: 00:56
08:15 Landing Weight: 389819 Lbs
08:15 POS N39º 29´ 26´´ W000º 29´ 07´´
08:17 Parking brakes on
08:17 Block to Block Duration: 01:02
08:17 Final Fuel: 20575 Lbls
08:17 Spent Fuel: 17297 Lbls
08:17 Flight Length: 327 NM
08:17 TOD Land Length: 84 NM

Exportar CSV

Powered by Drupal - Modified by Danger4k